Glen Wilton, Virginia
Current Conditions -  °F | °C
As of 3:35 PM on Friday 28 Nov 2014 (Local Time) from KHSP Reporting Station
Scattered Clouds Scattered Clouds  
Wind Chill: 12°   Ceiling: Unl
Heat Index: 23°   Visibility: 10mi
Dew Point: 13°   Wind: 10mph
Humidity: 65%   Direction: 260°W
Pressure: 30.09"   Gusts: NA
Location:  37.75°N, 79.82°W
Report Text: KHSP 282035Z AUTO 26009KT 10SM SCT085 M05/M11 A3009 RMK AO2 T10501107
Loading
Personal Weather Stations






























Interactive Weather Map New forecast layout! Learn more

10-Day Weather Forecast

Advertisements
Track Severe Weather on mobile